Time;durP1;ratioP1;P1;durP2;ratioP2;P2;SDS_P1;SDS_P2;PMS_P1;PMS_P2;Temp;Humidity;BMP_temperature;BMP_pressure;BME280_temperature;BME280_humidity;BME280_pressure;Samples;Min_cycle;Max_cycle;Signal;HPM_P1;HPM_P2
2023/07/11 00:01:48;172329.00;0.57;298.28;0.00;0.00;0.62;;;;;25.70;1.00;;;;;;2275882;60;1612;-87
2023/07/11 00:04:15;74003.00;0.25;128.68;0.00;0.00;0.62;;;;;25.80;1.00;;;;;;2275945;60;1652;-88
2023/07/11 00:06:42;163442.00;0.54;282.97;0.00;0.00;0.62;;;;;25.90;1.00;;;;;;2275965;60;931;-88
2023/07/11 00:09:09;165145.00;0.55;285.90;0.00;0.00;0.62;;;;;25.70;1.00;;;;;;2362314;40;3619;-87
2023/07/11 00:11:37;292141.00;0.97;504.41;0.00;0.00;0.62;;;;;25.40;1.00;;;;;;2283868;60;2008;-87
2023/07/11 00:14:04;417177.00;1.39;719.34;31819.00;0.11;55.73;;;;;25.50;1.00;;;;;;2284049;60;1568;-88
2023/07/11 00:16:31;265115.00;0.88;457.94;0.00;0.00;0.62;;;;;25.60;1.00;;;;;;2284054;60;1661;-90
2023/07/11 00:18:58;380833.00;1.27;656.86;53724.00;0.18;93.63;;;;;25.50;1.00;;;;;;2287099;60;1616;-87
2023/07/11 00:21:25;263412.00;0.88;455.02;0.00;0.00;0.62;;;;;25.70;1.00;;;;;;2288124;60;1761;-89
2023/07/11 00:23:52;165094.00;0.55;285.82;0.00;0.00;0.62;;;;;25.60;1.00;;;;;;2288001;60;1586;-90
2023/07/11 00:26:19;181269.00;0.60;313.67;0.00;0.00;0.62;;;;;25.30;1.00;;;;;;2288055;60;1021;-88
2023/07/11 00:33:45;1231991.00;4.11;2148.17;0.00;0.00;0.62;;;;;25.50;1.00;;;;;;2273175;61;1364;-88
2023/07/11 00:38:45;1120171.00;3.73;1946.53;19675.00;0.07;34.71;;;;;25.40;1.00;;;;;;2273476;60;1379;-89
2023/07/11 00:43:40;535123.00;1.78;922.32;0.00;0.00;0.62;;;;;25.60;1.00;;;;;;2273370;61;1408;-88
2023/07/11 00:46:13;283276.00;0.94;489.17;46492.00;0.15;81.12;;;;;25.40;1.00;;;;;;2271824;61;916;-86
2023/07/11 00:48:46;69355.00;0.23;120.65;0.00;0.00;0.62;;;;;25.20;1.00;;;;;;2271882;60;1408;-87
2023/07/11 00:51:17;215373.00;0.72;372.38;0.00;0.00;0.62;;;;;25.30;1.00;;;;;;2271719;60;1198;-86
2023/07/11 00:53:45;589071.00;1.96;1015.35;67318.00;0.22;117.13;;;;;25.20;1.00;;;;;;2310503;40;3566;-87
2023/07/11 00:56:19;151951.00;0.51;263.17;0.00;0.00;0.62;;;;;25.20;1.00;;;;;;2279831;60;1172;-86
2023/07/11 00:58:47;241137.00;0.80;416.71;68382.00;0.23;118.96;;;;;25.30;1.00;;;;;;2279755;60;1499;-89
2023/07/11 01:01:16;590902.00;1.97;1018.51;96403.00;0.32;167.36;;;;;25.40;1.00;;;;;;2318724;55;3965;-85
2023/07/11 01:03:47;249544.00;0.83;431.17;55508.00;0.19;96.71;;;;;25.30;1.00;;;;;;2279969;60;1012;-87
2023/07/11 01:06:18;354697.00;1.18;611.93;47528.00;0.16;82.91;;;;;25.40;1.00;;;;;;2279920;60;1841;-86
2023/07/11 01:08:48;319839.00;1.07;552.02;0.00;0.00;0.62;;;;;25.40;1.00;;;;;;2279865;60;1293;-87
2023/07/11 01:11:15;298736.00;1.00;515.75;15996.00;0.05;28.34;;;;;25.20;1.00;;;;;;2279732;60;1785;-87
2023/07/11 01:13:43;462871.00;1.54;797.92;0.00;0.00;0.62;;;;;25.00;1.00;;;;;;2279716;60;1941;-86
2023/07/11 01:16:10;275363.00;0.92;475.57;66516.00;0.22;115.74;;;;;25.10;1.00;;;;;;2303707;55;3770;-86
2023/07/11 01:18:38;655283.00;2.18;1129.78;0.00;0.00;0.62;;;;;25.10;1.00;;;;;;2280138;60;1801;-86
2023/07/11 01:21:11;267573.00;0.89;462.17;38980.00;0.13;68.12;;;;;25.00;1.00;;;;;;2280417;60;1183;-87
2023/07/11 01:26:11;1152690.00;3.84;2004.91;0.00;0.00;0.62;;;;;25.00;1.00;;;;;;2286314;55;3665;-88
2023/07/11 01:28:39;435693.00;1.45;751.18;0.00;0.00;0.62;;;;;24.70;1.00;;;;;;2276379;61;1676;-84
2023/07/11 01:31:07;217466.00;0.72;375.98;14531.00;0.05;25.80;;;;;24.70;1.00;;;;;;2276354;61;1285;-87
2023/07/11 01:33:35;202708.00;0.68;350.58;0.00;0.00;0.62;;;;;24.70;1.00;;;;;;2276256;61;2036;-86
2023/07/11 01:36:03;206919.00;0.69;357.83;0.00;0.00;0.62;;;;;24.60;1.00;;;;;;2276334;61;1107;-87
2023/07/11 01:38:30;627698.00;2.09;1082.07;94258.00;0.31;163.66;;;;;24.70;1.00;;;;;;2276250;61;1327;-89
2023/07/11 01:43:38;1204939.00;4.02;2099.15;0.00;0.00;0.62;;;;;24.40;1.00;;;;;;2274909;61;1295;-88
2023/07/11 01:48:57;1409421.00;4.70;2473.81;63843.00;0.21;111.12;;;;;24.60;1.00;;;;;;2269805;61;1430;-87
2023/07/11 01:51:24;734199.00;2.45;1266.60;73048.00;0.24;127.03;;;;;24.50;1.00;;;;;;2268314;61;1059;-88
2023/07/11 01:53:51;1257435.00;4.19;2194.41;102374.00;0.34;177.67;;;;;24.30;1.00;;;;;;2268220;61;2002;-88
2023/07/11 01:56:19;1234487.00;4.11;2152.70;118814.00;0.40;206.04;;;;;24.20;1.00;;;;;;2303268;40;3595;-88
2023/07/11 01:58:47;935074.00;3.12;1617.81;62890.00;0.21;109.47;;;;;24.30;1.00;;;;;;2281084;61;1209;-88
2023/07/11 02:01:15;848591.00;2.83;1466.00;125352.00;0.42;217.31;;;;;24.40;1.00;;;;;;2281080;61;939;-90
2023/07/11 02:03:42;523120.00;1.74;901.64;27921.00;0.09;48.98;;;;;24.50;1.00;;;;;;2280947;61;1129;-87
2023/07/11 02:06:09;644880.00;2.15;1111.78;14076.00;0.05;25.01;;;;;24.80;1.00;;;;;;2320980;39;3688;-88
2023/07/11 02:08:38;744442.00;2.48;1284.40;2872.00;0.01;5.60;;;;;24.70;1.00;;;;;;2295246;55;3767;-86
2023/07/11 02:11:05;1004205.00;3.35;1739.92;122442.00;0.41;212.29;;;;;24.70;1.00;;;;;;2276369;61;1278;-88
2023/07/11 02:13:33;866548.00;2.89;1497.44;121373.00;0.40;210.45;;;;;24.80;1.00;;;;;;2276234;61;1996;-88
2023/07/11 02:16:01;871698.00;2.91;1506.47;64986.00;0.22;113.10;;;;;24.70;1.00;;;;;;2276265;61;1666;-88
2023/07/11 02:18:28;775083.00;2.58;1337.70;63575.00;0.21;110.66;;;;;24.70;1.00;;;;;;2276259;61;1626;-86
2023/07/11 02:20:58;794810.00;2.65;1372.07;38670.00;0.13;67.59;;;;;24.60;1.00;;;;;;2276257;61;990;-87
2023/07/11 02:23:25;705165.00;2.35;1216.20;532.00;0.00;1.54;;;;;24.80;1.00;;;;;;2276175;61;1681;-88
2023/07/11 02:25:54;857253.00;2.86;1481.16;99951.00;0.33;173.49;;;;;24.60;1.00;;;;;;2276223;61;1085;-87
2023/07/11 02:28:21;743159.00;2.48;1282.17;19561.00;0.07;34.51;;;;;24.20;1.00;;;;;;2276116;61;1632;-87
2023/07/11 02:30:49;625572.00;2.09;1078.40;84183.00;0.28;146.26;;;;;24.20;1.00;;;;;;2276334;61;893;-86
2023/07/11 02:33:17;847630.00;2.83;1464.32;108499.00;0.36;188.24;;;;;24.40;1.00;;;;;;2276004;61;1992;-86
2023/07/11 02:35:45;647091.00;2.16;1115.60;88970.00;0.30;154.53;;;;;24.50;1.00;;;;;;2276295;61;1225;-85
2023/07/11 02:38:15;696130.00;2.32;1200.53;5756.00;0.02;10.60;;;;;24.60;1.00;;;;;;2276155;61;1860;-87
2023/07/11 02:40:42;646401.00;2.15;1114.41;34976.00;0.12;61.20;;;;;24.50;1.00;;;;;;2276164;61;1693;-86
2023/07/11 02:43:09;973137.00;3.24;1684.95;53179.00;0.18;92.68;;;;;24.60;1.00;;;;;;2276267;61;1784;-85
2023/07/11 02:45:36;702806.00;2.34;1212.10;25166.00;0.08;44.21;;;;;24.50;1.00;;;;;;2276177;61;1039;-88
2023/07/11 02:48:04;677182.00;2.26;1167.69;47736.00;0.16;83.27;;;;;24.80;1.00;;;;;;2276226;61;1664;-86
2023/07/11 02:50:33;770789.00;2.57;1330.23;19138.00;0.06;33.78;;;;;25.00;1.00;;;;;;2276097;61;1465;-87
2023/07/11 02:53:00;808397.00;2.69;1395.77;95315.00;0.32;165.48;;;;;24.90;1.00;;;;;;2276086;61;2018;-88
2023/07/11 02:55:27;805962.00;2.69;1391.52;13426.00;0.04;23.88;;;;;24.80;1.00;;;;;;2276155;61;1801;-87
2023/07/11 02:57:54;780170.00;2.60;1346.56;89040.00;0.30;154.65;;;;;24.60;1.00;;;;;;2276182;61;1286;-87
2023/07/11 03:00:22;555445.00;1.85;957.35;62279.00;0.21;108.42;;;;;24.60;1.00;;;;;;2275960;61;954;-86
2023/07/11 03:02:49;859144.00;2.86;1484.47;23614.00;0.08;41.53;;;;;24.70;1.00;;;;;;2276361;61;1734;-90
2023/07/11 03:05:16;769738.00;2.57;1328.40;58869.00;0.20;102.52;;;;;24.80;1.00;;;;;;2276457;61;1707;-89
2023/07/11 03:07:45;843807.00;2.81;1457.63;77591.00;0.26;134.88;;;;;24.70;1.00;;;;;;2276487;61;1380;-87
2023/07/11 03:10:12;676190.00;2.25;1165.97;69690.00;0.23;121.22;;;;;24.80;1.00;;;;;;2276324;61;1616;-86
2023/07/11 03:12:39;894232.00;2.98;1545.99;101655.00;0.34;176.43;;;;;24.80;1.00;;;;;;2276428;61;1936;-87
2023/07/11 03:15:08;830345.00;2.77;1434.10;87839.00;0.29;152.58;;;;;24.50;1.00;;;;;;2276305;61;1538;-87
2023/07/11 03:17:35;860479.00;2.87;1486.81;63673.00;0.21;110.83;;;;;24.50;1.00;;;;;;2334467;40;3929;-87
2023/07/11 03:20:03;659533.00;2.20;1137.13;40672.00;0.14;71.05;;;;;24.50;1.00;;;;;;2280372;60;1674;-87
2023/07/11 03:22:30;621067.00;2.07;1070.61;33586.00;0.11;58.79;;;;;24.10;1.00;;;;;;2280406;60;1786;-87
2023/07/11 03:25:01;715586.00;2.39;1234.28;84675.00;0.28;147.11;;;;;24.40;1.00;;;;;;2282551;39;3645;-86
2023/07/11 03:27:29;705770.00;2.35;1217.25;0.00;0.00;0.62;;;;;24.30;1.00;;;;;;2280425;60;1721;-89
2023/07/11 03:29:56;641381.00;2.14;1105.73;34107.00;0.11;59.69;;;;;24.00;1.00;;;;;;2280390;60;1136;-88
2023/07/11 03:32:23;665080.00;2.22;1146.73;101266.00;0.34;175.76;;;;;23.90;1.00;;;;;;2280332;60;1927;-87
2023/07/11 03:34:51;610798.00;2.04;1052.87;0.00;0.00;0.62;;;;;24.00;1.00;;;;;;2280243;60;2082;-86
2023/07/11 03:37:19;692925.00;2.31;1194.97;52415.00;0.17;91.36;;;;;23.90;1.00;;;;;;2280326;60;1369;-89
2023/07/11 03:39:47;835131.00;2.78;1442.46;8847.00;0.03;15.95;;;;;23.70;1.00;;;;;;2280426;60;1376;-87
2023/07/11 03:42:15;722905.00;2.41;1246.98;39546.00;0.13;69.10;;;;;24.10;1.00;;;;;;2280318;60;1232;-88
2023/07/11 03:44:43;747317.00;2.49;1289.39;8753.00;0.03;15.79;;;;;24.30;1.00;;;;;;2280237;60;1182;-86
2023/07/11 03:47:11;649102.00;2.16;1119.08;57061.00;0.19;99.40;;;;;24.30;1.00;;;;;;2280394;60;2088;-85
2023/07/11 03:49:38;444266.00;1.48;765.92;110336.00;0.37;191.41;;;;;24.30;1.00;;;;;;2280275;60;1591;-85
2023/07/11 03:52:06;233253.00;0.78;403.15;9362.00;0.03;16.84;;;;;24.40;1.00;;;;;;2280327;60;1576;-87
2023/07/11 03:54:33;483265.00;1.61;833.02;45528.00;0.15;79.45;;;;;24.40;1.00;;;;;;2280255;60;2012;-86
2023/07/11 03:57:00;271092.00;0.90;468.22;66304.00;0.22;115.37;;;;;24.00;1.00;;;;;;2280350;60;1638;-87
2023/07/11 03:59:30;665747.00;2.22;1147.89;32106.00;0.11;56.23;;;;;23.90;1.00;;;;;;2280321;60;1705;-86
2023/07/11 04:01:58;368904.00;1.23;636.35;0.00;0.00;0.62;;;;;23.70;1.00;;;;;;2280150;60;1690;-87
2023/07/11 04:04:25;485735.00;1.62;837.27;87174.00;0.29;151.43;;;;;23.70;1.00;;;;;;2280385;60;1178;-86
2023/07/11 04:06:52;312710.00;1.04;539.77;54790.00;0.18;95.47;;;;;23.70;1.00;;;;;;2280241;60;1759;-87
2023/07/11 04:09:19;190528.00;0.64;329.62;0.00;0.00;0.62;;;;;23.90;1.00;;;;;;2280129;60;1646;-86
2023/07/11 04:11:46;297238.00;0.99;513.17;0.00;0.00;0.62;;;;;23.90;1.00;;;;;;2280165;60;1758;-85
2023/07/11 04:14:13;406539.00;1.36;701.05;102040.00;0.34;177.09;;;;;23.80;1.00;;;;;;2280287;60;1935;-86
2023/07/11 04:16:41;354166.00;1.18;611.02;70120.00;0.23;121.97;;;;;23.90;1.00;;;;;;2280216;60;1625;-86
2023/07/11 04:19:08;606520.00;2.02;1045.48;0.00;0.00;0.62;;;;;24.00;1.00;;;;;;2286624;56;3779;-86
2023/07/11 04:24:06;1033603.00;3.45;1792.08;80249.00;0.27;139.47;;;;;23.90;1.00;;;;;;2266215;61;1341;-88
2023/07/11 04:26:33;277807.00;0.93;479.77;0.00;0.00;0.62;;;;;23.80;1.00;;;;;;2264097;61;1652;-89
2023/07/11 04:29:00;563602.00;1.88;971.41;0.00;0.00;0.62;;;;;23.80;1.00;;;;;;2317329;41;3706;-89
2023/07/11 04:31:28;117366816.00;391.22;65488372.00;23071.00;0.08;40.59;;;;;24.00;1.00;;;;;;2276534;61;1168;-88
2023/07/11 04:33:57;248010.00;0.83;428.53;0.00;0.00;0.62;;;;;24.30;1.00;;;;;;2276184;61;1923;-86
2023/07/11 04:36:24;466237.00;1.55;803.72;101585.00;0.34;176.31;;;;;24.50;1.00;;;;;;2276143;61;1306;-87
2023/07/11 04:38:51;334661.00;1.12;577.50;56965.00;0.19;99.23;;;;;24.40;1.00;;;;;;2275880;61;1410;-85
2023/07/11 04:43:46;1350186.00;4.50;2364.25;0.00;0.00;0.62;;;;;24.90;1.00;;;;;;2291994;55;3702;-86
2023/07/11 04:51:18;1161783.00;3.87;2021.27;0.00;0.00;0.62;;;;;25.00;1.00;;;;;;2336331;40;3524;-84
2023/07/11 04:53:45;342470.00;1.14;590.92;0.00;0.00;0.62;;;;;25.10;1.00;;;;;;2280487;60;2006;-86
2023/07/11 04:58:43;1117113.00;3.72;1941.05;0.00;0.00;0.62;;;;;25.20;1.00;;;;;;2304234;55;3718;-85
2023/07/11 05:01:13;268469.00;0.89;463.71;2769.00;0.01;5.42;;;;;25.10;1.00;;;;;;2332440;39;3776;-86
2023/07/11 05:03:41;348472.00;1.16;601.23;0.00;0.00;0.62;;;;;25.00;1.00;;;;;;2354506;39;3702;-86
2023/07/11 05:06:09;364021.00;1.21;627.96;851.00;0.00;2.10;;;;;25.00;1.00;;;;;;2287921;40;3623;-85
2023/07/11 05:08:38;609865.00;2.03;1051.26;0.00;0.00;0.62;;;;;25.10;1.00;;;;;;2295767;40;3598;-86
2023/07/11 05:13:42;254921.00;0.85;440.41;0.00;0.00;0.62;;;;;25.20;1.00;;;;;;2387280;40;1954;-84
2023/07/11 05:16:12;522376.00;1.74;900.36;29372.00;0.10;51.50;;;;;25.30;1.00;;;;;;2294512;39;3612;-84
2023/07/11 05:18:40;199716.00;0.67;345.43;8617.00;0.03;15.55;;;;;25.30;1.00;;;;;;2280772;60;1649;-85
2023/07/11 05:21:09;268721.00;0.90;464.14;0.00;0.00;0.62;;;;;25.70;1.00;;;;;;2280567;60;1744;-86
2023/07/11 05:26:10;1725089.00;5.75;3074.28;7239.00;0.02;13.17;;;;;25.60;1.00;;;;;;2305281;40;3488;-87
2023/07/11 05:31:10;1598784.00;5.33;2830.42;25802.00;0.09;45.32;;;;;25.90;1.00;;;;;;2274149;61;1428;-86
2023/07/11 05:36:15;1166651.00;3.89;2030.04;0.00;0.00;0.62;;;;;26.20;1.00;;;;;;2270431;61;1419;-85
2023/07/11 05:38:43;224875.00;0.75;388.73;0.00;0.00;0.62;;;;;26.30;1.00;;;;;;2303945;55;3777;-87
2023/07/11 05:41:11;314014.00;1.05;542.01;0.00;0.00;0.62;;;;;26.70;1.00;;;;;;2276699;61;1769;-86
2023/07/11 05:43:39;677701.00;2.26;1168.59;0.00;0.00;0.62;;;;;26.80;1.00;;;;;;2310699;40;3641;-84
2023/07/11 05:48:39;1396346.00;4.65;2449.55;0.00;0.00;0.62;;;;;27.50;1.00;;;;;;2269787;61;1426;-87
2023/07/11 05:51:08;275050.00;0.92;475.03;0.00;0.00;0.62;;;;;28.70;1.00;;;;;;2268331;61;943;-86
2023/07/11 05:53:37;269758.00;0.90;465.93;0.00;0.00;0.62;;;;;29.80;1.00;;;;;;2267911;61;2020;-86
2023/07/11 05:56:04;238140.00;0.79;411.55;0.00;0.00;0.62;;;;;31.10;1.00;;;;;;2268408;61;1185;-86
2023/07/11 05:58:34;216686.00;0.72;374.64;0.00;0.00;0.62;;;;;31.90;1.00;;;;;;2268071;61;1596;-85
2023/07/11 06:01:02;154641.00;0.52;267.81;0.00;0.00;0.62;;;;;32.60;1.00;;;;;;2268198;61;884;-85
2023/07/11 06:03:31;149185.00;0.50;258.40;0.00;0.00;0.62;;;;;33.80;1.00;;;;;;2267797;61;1155;-86
2023/07/11 06:06:01;184036.00;0.61;318.44;0.00;0.00;0.62;;;;;34.40;1.00;;;;;;2268031;61;1788;-85
2023/07/11 06:08:29;198132.00;0.66;342.71;0.00;0.00;0.62;;;;;35.00;1.00;;;;;;2268323;61;1288;-84
2023/07/11 06:10:58;272296.00;0.91;470.29;0.00;0.00;0.62;;;;;35.50;1.00;;;;;;2268391;61;1259;-88
2023/07/11 06:13:26;234074.00;0.78;404.56;0.00;0.00;0.62;;;;;35.50;1.00;;;;;;2268380;61;2004;-87
2023/07/11 06:16:00;121172.00;0.40;210.10;0.00;0.00;0.62;;;;;36.40;1.00;;;;;;2268029;61;1480;-86
2023/07/11 06:18:27;223200.00;0.74;385.85;0.00;0.00;0.62;;;;;36.50;1.00;;;;;;2268059;61;1614;-86
2023/07/11 06:20:54;177623.00;0.59;307.40;0.00;0.00;0.62;;;;;36.70;1.00;;;;;;2268262;61;1236;-86
2023/07/11 06:23:22;282189.00;0.94;487.30;0.00;0.00;0.62;;;;;37.50;1.00;;;;;;2268361;61;1189;-86
2023/07/11 06:25:49;217349.00;0.72;375.78;49151.00;0.16;85.72;;;;;38.00;1.00;;;;;;2268014;61;1021;-86
2023/07/11 06:28:16;148662.00;0.50;257.50;0.00;0.00;0.62;;;;;38.50;1.00;;;;;;2267733;61;1375;-86
2023/07/11 06:30:44;140537.00;0.47;243.50;0.00;0.00;0.62;;;;;38.80;1.00;;;;;;2268037;61;1133;-86
2023/07/11 06:33:14;175936.00;0.59;304.49;17320.00;0.06;30.63;;;;;38.70;1.00;;;;;;2267083;61;2013;-87
2023/07/11 06:35:42;275757.00;0.92;476.24;36060.00;0.12;63.07;;;;;39.00;1.00;;;;;;2266778;61;1581;-85
2023/07/11 06:38:09;348814.00;1.16;601.82;49091.00;0.16;85.61;;;;;39.50;1.00;;;;;;2266579;61;1352;-86
2023/07/11 06:40:36;155393.00;0.52;269.10;0.00;0.00;0.62;;;;;40.00;1.00;;;;;;2266986;61;1406;-85
2023/07/11 06:43:03;140567.00;0.47;243.55;0.00;0.00;0.62;;;;;40.20;1.00;;;;;;2266920;61;1157;-86
2023/07/11 06:45:30;159067.00;0.53;275.43;0.00;0.00;0.62;;;;;39.30;1.00;;;;;;2266217;61;1232;-85
2023/07/11 06:47:57;262920.00;0.88;454.17;25510.00;0.09;44.81;;;;;40.10;1.00;;;;;;2266624;61;1335;-86
2023/07/11 06:50:25;134122.00;0.45;232.44;0.00;0.00;0.62;;;;;40.20;1.00;;;;;;2266701;61;1097;-86
2023/07/11 06:52:52;203544.00;0.68;352.02;0.00;0.00;0.62;;;;;40.10;1.00;;;;;;2266792;61;1176;-86
2023/07/11 06:55:19;170003.00;0.57;294.27;0.00;0.00;0.62;;;;;40.00;1.00;;;;;;2268285;61;2030;-87
2023/07/11 06:57:46;205139.00;0.68;354.77;0.00;0.00;0.62;;;;;39.80;1.00;;;;;;2297352;39;3776;-86
2023/07/11 07:00:14;271580.00;0.91;469.06;0.00;0.00;0.62;;;;;39.60;1.00;;;;;;2280427;60;1021;-87
2023/07/11 07:02:41;303437.00;1.01;523.83;0.00;0.00;0.62;;;;;39.50;1.00;;;;;;2280523;60;1688;-88
2023/07/11 07:05:09;337259.00;1.12;581.96;0.00;0.00;0.62;;;;;40.60;1.00;;;;;;2294827;40;3558;-85
2023/07/11 07:07:38;292942.00;0.98;505.79;69099.00;0.23;120.20;;;;;40.50;1.00;;;;;;2278831;61;1273;-86
2023/07/11 07:10:05;247750.00;0.83;428.08;0.00;0.00;0.62;;;;;40.80;1.00;;;;;;2279330;61;1162;-86
2023/07/11 07:12:36;170457.00;0.57;295.05;0.00;0.00;0.62;;;;;40.40;1.00;;;;;;2278600;61;1074;-87
2023/07/11 07:15:08;401625.00;1.34;692.60;5934.00;0.02;10.90;;;;;41.00;1.00;;;;;;2278987;60;2006;-87
2023/07/11 07:17:35;154648.00;0.52;267.82;0.00;0.00;0.62;;;;;40.80;1.00;;;;;;2278768;61;1755;-86
2023/07/11 07:20:02;252705.00;0.84;436.60;0.00;0.00;0.62;;;;;41.00;1.00;;;;;;2280089;60;1494;-86
2023/07/11 07:22:29;186648.00;0.62;322.94;0.00;0.00;0.62;;;;;41.30;1.00;;;;;;2279600;60;1591;-87
2023/07/11 07:25:00;182656.00;0.61;316.06;0.00;0.00;0.62;;;;;41.00;1.00;;;;;;2279305;61;1416;-86
2023/07/11 07:27:28;177595.00;0.59;307.35;0.00;0.00;0.62;;;;;41.40;1.00;;;;;;2278443;61;1414;-87
2023/07/11 07:29:55;246031.00;0.82;425.12;0.00;0.00;0.62;;;;;42.10;1.00;;;;;;2278802;61;1678;-87
2023/07/11 07:32:23;242276.00;0.81;418.67;0.00;0.00;0.62;;;;;42.20;1.00;;;;;;2279548;60;1143;-87
2023/07/11 07:34:50;195570.00;0.65;338.30;0.00;0.00;0.62;;;;;41.50;1.00;;;;;;2278076;61;2001;-87
2023/07/11 07:37:17;175822.00;0.59;304.29;0.00;0.00;0.62;;;;;41.90;1.00;;;;;;2278994;61;1204;-86
2023/07/11 07:39:44;236946.00;0.79;409.50;0.00;0.00;0.62;;;;;42.20;1.00;;;;;;2278442;61;1196;-86
2023/07/11 07:42:14;349528.00;1.17;603.05;74100.00;0.25;128.84;;;;;41.70;1.00;;;;;;2279726;61;1129;-87
2023/07/11 07:44:41;104545.00;0.35;181.42;0.00;0.00;0.62;;;;;42.20;1.00;;;;;;2280154;60;1491;-87
2023/07/11 07:47:08;181378.00;0.60;313.86;0.00;0.00;0.62;;;;;42.10;1.00;;;;;;2280267;60;1016;-89
2023/07/11 07:49:35;226407.00;0.75;391.37;0.00;0.00;0.62;;;;;41.90;1.00;;;;;;2280203;60;1300;-87
2023/07/11 07:52:02;299228.00;1.00;516.59;12603.00;0.04;22.46;;;;;43.00;1.00;;;;;;2280127;60;1734;-87
2023/07/11 07:54:29;136893.00;0.46;237.21;0.00;0.00;0.62;;;;;42.50;1.00;;;;;;2280213;60;2013;-88
2023/07/11 07:56:56;185462.00;0.62;320.90;0.00;0.00;0.62;;;;;42.80;1.00;;;;;;2280091;60;1464;-85
2023/07/11 07:59:24;334924.00;1.12;577.95;0.00;0.00;0.62;;;;;42.40;1.00;;;;;;2279747;60;1413;-87
2023/07/11 08:01:51;301822.00;1.01;521.05;0.00;0.00;0.62;;;;;42.70;1.00;;;;;;2280110;60;1666;-87
2023/07/11 08:04:18;138067.00;0.46;239.24;0.00;0.00;0.62;;;;;42.60;1.00;;;;;;2279968;60;1090;-86
2023/07/11 08:06:45;144168.00;0.48;249.76;0.00;0.00;0.62;;;;;43.00;1.00;;;;;;2280120;60;1121;-87
2023/07/11 08:09:16;351885.00;1.17;607.10;0.00;0.00;0.62;;;;;42.60;1.00;;;;;;2280059;60;1363;-86
2023/07/11 08:14:14;924945.00;3.08;1599.97;0.00;0.00;0.62;;;;;41.90;1.00;;;;;;2273540;61;1961;-86
2023/07/11 08:16:42;160898.00;0.54;278.59;0.00;0.00;0.62;;;;;42.10;1.00;;;;;;2271648;61;1037;-85
2023/07/11 08:19:09;197046.00;0.66;340.84;0.00;0.00;0.62;;;;;42.70;1.00;;;;;;2271843;61;1537;-85
2023/07/11 08:21:36;117336.00;0.39;203.49;0.00;0.00;0.62;;;;;43.60;1.00;;;;;;2271927;61;944;-86
2023/07/11 08:24:05;476789.00;1.59;821.87;105794.00;0.35;183.57;;;;;42.70;1.00;;;;;;2271873;61;1266;-87
2023/07/11 08:26:32;255994.00;0.85;442.26;0.00;0.00;0.62;;;;;42.00;1.00;;;;;;2271941;61;1541;-87
2023/07/11 08:28:59;262298.00;0.87;453.10;0.00;0.00;0.62;;;;;41.40;1.00;;;;;;2271765;61;1620;-86
2023/07/11 08:31:27;109901.00;0.37;190.66;0.00;0.00;0.62;;;;;42.20;1.00;;;;;;2271975;61;1263;-89
2023/07/11 08:33:55;226162.00;0.75;390.95;0.00;0.00;0.62;;;;;42.60;1.00;;;;;;2271835;61;2000;-86
2023/07/11 08:36:24;252173.00;0.84;435.69;0.00;0.00;0.62;;;;;42.70;1.00;;;;;;2271860;61;1477;-87
2023/07/11 08:38:51;243509.00;0.81;420.79;0.00;0.00;0.62;;;;;42.20;1.00;;;;;;2271572;61;1628;-86
2023/07/11 08:41:41;181484.00;0.60;314.05;31421.00;0.10;55.04;;;;;42.20;1.00;;;;;;2271856;61;2245;-86
2023/07/11 08:44:15;232777.00;0.78;402.33;79169.00;0.26;137.60;;;;;42.10;1.00;;;;;;2271908;61;1074;-87
2023/07/11 08:46:51;210474.00;0.70;363.95;0.00;0.00;0.62;;;;;41.60;1.00;;;;;;2271898;61;1606;-86
2023/07/11 08:49:35;264060.00;0.88;456.13;49476.00;0.16;86.28;;;;;41.30;1.00;;;;;;2271986;61;1461;-88
2023/07/11 08:52:19;264077.00;0.88;456.16;30453.00;0.10;53.37;;;;;41.30;1.00;;;;;;2271946;61;1602;-88
2023/07/11 08:54:52;201354.00;0.67;348.25;0.00;0.00;0.62;;;;;42.40;1.00;;;;;;2271870;61;1998;-88
2023/07/11 08:57:23;464318.00;1.55;800.41;0.00;0.00;0.62;;;;;41.50;1.00;;;;;;2271724;61;1832;-87
2023/07/11 08:59:58;181963.00;0.61;314.87;0.00;0.00;0.62;;;;;41.30;1.00;;;;;;2271914;61;1103;-87
2023/07/11 09:02:39;295522.00;0.99;510.22;10109.00;0.03;18.14;;;;;41.60;1.00;;;;;;2271910;61;1650;-87
2023/07/11 09:05:17;59161.00;0.20;103.03;0.00;0.00;0.62;;;;;41.20;1.00;;;;;;2271979;61;1013;-87
2023/07/11 09:07:46;208530.00;0.70;360.61;2377.00;0.01;4.74;;;;;41.70;1.00;;;;;;2271744;61;1681;-87
2023/07/11 09:10:27;407226.00;1.36;702.23;29026.00;0.10;50.90;;;;;41.90;1.00;;;;;;2271919;61;1615;-88
2023/07/11 09:13:08;259702.00;0.87;448.64;0.00;0.00;0.62;;;;;41.60;1.00;;;;;;2271776;61;1608;-88
2023/07/11 09:15:56;78555.00;0.26;136.54;0.00;0.00;0.62;;;;;42.00;1.00;;;;;;2271823;61;2000;-88
2023/07/11 09:18:54;445321.00;1.48;767.73;45156.00;0.15;78.81;;;;;42.10;1.00;;;;;;2271863;61;1604;-87
2023/07/11 09:21:30;269104.00;0.90;464.80;0.00;0.00;0.62;;;;;41.70;1.00;;;;;;2271896;61;1603;-89
2023/07/11 09:24:12;701124.00;2.34;1209.19;166798.00;0.56;288.75;;;;;40.60;1.00;;;;;;2271764;61;1542;-87
2023/07/11 09:26:48;572914.00;1.91;987.47;28392.00;0.09;49.80;;;;;40.10;1.00;;;;;;2271866;61;1486;-89
2023/07/11 09:29:28;561995.00;1.87;968.64;16510.00;0.06;29.23;;;;;39.50;1.00;;;;;;2271764;61;1608;-88
2023/07/11 09:32:05;547153.00;1.82;943.05;0.00;0.00;0.62;;;;;39.50;1.00;;;;;;2271867;61;1805;-86
2023/07/11 09:34:44;1176955.00;3.92;2048.61;176880.00;0.59;306.12;;;;;39.30;1.00;;;;;;2271690;61;1911;-86
2023/07/11 09:37:27;1124700.00;3.75;1954.65;97340.00;0.32;168.98;;;;;39.60;1.00;;;;;;2271940;61;1168;-87
2023/07/11 09:40:11;324772.00;1.08;560.50;115231.00;0.38;199.86;;;;;39.50;1.00;;;;;;2272443;61;1153;-88
2023/07/11 09:42:53;366572.00;1.22;632.34;38493.00;0.13;67.28;;;;;39.20;1.00;;;;;;2272646;61;1059;-87
2023/07/11 09:45:24;134656.00;0.45;233.36;0.00;0.00;0.62;;;;;39.00;1.00;;;;;;2272571;61;974;-87
2023/07/11 09:47:55;174987.00;0.58;302.86;0.00;0.00;0.62;;;;;38.80;1.00;;;;;;2272468;61;1592;-87
2023/07/11 09:50:47;136239.00;0.45;236.09;0.00;0.00;0.62;;;;;38.50;1.00;;;;;;2272527;61;928;-87
2023/07/11 09:53:27;309835.00;1.03;534.83;0.00;0.00;0.62;;;;;38.60;1.00;;;;;;2272514;61;1490;-87
2023/07/11 09:55:57;116621.00;0.39;202.25;0.00;0.00;0.62;;;;;39.00;1.00;;;;;;2272408;61;1926;-86
2023/07/11 09:58:32;182734.00;0.61;316.20;0.00;0.00;0.62;;;;;39.50;1.00;;;;;;2272407;61;1547;-86
2023/07/11 10:01:02;173188.00;0.58;299.76;0.00;0.00;0.62;;;;;39.80;1.00;;;;;;2272358;61;1596;-86
2023/07/11 10:03:34;177816.00;0.59;307.73;0.00;0.00;0.62;;;;;39.80;1.00;;;;;;2272466;61;1544;-87
2023/07/11 10:06:23;266277.00;0.89;459.94;0.00;0.00;0.62;;;;;39.70;1.00;;;;;;2272475;61;1493;-86
2023/07/11 10:09:32;480574.00;1.60;828.39;81269.00;0.27;141.23;;;;;39.40;1.00;;;;;;2272304;61;1675;-88
2023/07/11 10:12:01;341271.00;1.14;588.86;0.00;0.00;0.62;;;;;39.40;1.00;;;;;;2272331;61;1687;-88
2023/07/11 10:14:37;376510.00;1.26;649.43;13528.00;0.05;24.06;;;;;39.10;1.00;;;;;;2272337;61;1923;-88
2023/07/11 10:19:59;431101.00;1.44;743.28;0.00;0.00;0.62;;;;;39.20;1.00;;;;;;2386444;56;2053;-88
2023/07/11 10:22:40;120474592.00;401.58;70834600.00;0.00;0.00;0.62;;;;;38.80;1.00;;;;;;2280469;60;1682;-88
2023/07/11 10:25:22;290751.00;0.97;502.02;0.00;0.00;0.62;;;;;38.70;1.00;;;;;;2280507;60;1563;-86
2023/07/11 10:27:55;558650.00;1.86;962.87;115476.00;0.38;200.28;;;;;39.00;1.00;;;;;;2280395;60;1457;-84
2023/07/11 10:30:26;167808.00;0.56;290.49;49573.00;0.17;86.45;;;;;39.30;1.00;;;;;;2279513;61;1061;-84
2023/07/11 10:32:59;224172.00;0.75;387.52;0.00;0.00;0.62;;;;;39.50;1.00;;;;;;2279673;60;1106;-84
2023/07/11 10:35:27;35891.00;0.12;62.78;0.00;0.00;0.62;;;;;39.60;1.00;;;;;;2277488;61;1919;-85
2023/07/11 10:37:59;13196.00;0.04;23.49;0.00;0.00;0.62;;;;;39.40;1.00;;;;;;2277759;61;1382;-86
2023/07/11 10:40:29;0.00;0.00;0.62;0.00;0.00;0.62;;;;;39.40;1.00;;;;;;2276747;61;1207;-84
2023/07/11 10:43:06;2652.00;0.01;5.22;0.00;0.00;0.62;;;;;39.50;1.00;;;;;;2276683;61;1058;-83